sensor_id;sensor_type;location;lat;lon;timestamp;temperature;humidity
67379;DHT22;54262;44.642;-0.974;2024-03-17T00:06:11;15.10;99.90
67379;DHT22;54262;44.642;-0.974;2024-03-17T00:08:37;15.10;99.90
67379;DHT22;54262;44.642;-0.974;2024-03-17T00:16:14;15.00;99.90
67379;DHT22;54262;44.642;-0.974;2024-03-17T00:18:47;15.00;99.90
67379;DHT22;54262;44.642;-0.974;2024-03-17T00:21:13;15.00;99.90
67379;DHT22;54262;44.642;-0.974;2024-03-17T00:23:39;15.00;99.90
67379;DHT22;54262;44.642;-0.974;2024-03-17T00:26:04;15.00;99.90
67379;DHT22;54262;44.642;-0.974;2024-03-17T00:28:30;15.00;99.90
67379;DHT22;54262;44.642;-0.974;2024-03-17T00:30:56;15.00;99.90
67379;DHT22;54262;44.642;-0.974;2024-03-17T00:33:21;15.00;99.90
67379;DHT22;54262;44.642;-0.974;2024-03-17T00:35:47;15.00;99.90
67379;DHT22;54262;44.642;-0.974;2024-03-17T00:38:13;15.00;99.90
67379;DHT22;54262;44.642;-0.974;2024-03-17T00:40:39;15.00;99.90
67379;DHT22;54262;44.642;-0.974;2024-03-17T00:43:06;15.00;99.90
67379;DHT22;54262;44.642;-0.974;2024-03-17T00:45:33;15.00;99.90
67379;DHT22;54262;44.642;-0.974;2024-03-17T00:48:01;15.00;99.90
67379;DHT22;54262;44.642;-0.974;2024-03-17T00:50:26;15.00;99.90
67379;DHT22;54262;44.642;-0.974;2024-03-17T00:52:52;14.90;99.90
67379;DHT22;54262;44.642;-0.974;2024-03-17T00:55:18;14.90;99.90
67379;DHT22;54262;44.642;-0.974;2024-03-17T00:57:43;14.90;99.90
67379;DHT22;54262;44.642;-0.974;2024-03-17T01:00:12;14.90;99.90
67379;DHT22;54262;44.642;-0.974;2024-03-17T01:02:38;15.00;99.90
67379;DHT22;54262;44.642;-0.974;2024-03-17T01:05:05;14.90;99.90
67379;DHT22;54262;44.642;-0.974;2024-03-17T01:07:31;14.90;99.90
67379;DHT22;54262;44.642;-0.974;2024-03-17T01:09:57;14.90;99.90
67379;DHT22;54262;44.642;-0.974;2024-03-17T01:12:23;14.80;99.90
67379;DHT22;54262;44.642;-0.974;2024-03-17T01:14:48;14.80;99.90
67379;DHT22;54262;44.642;-0.974;2024-03-17T01:17:14;14.80;99.90
67379;DHT22;54262;44.642;-0.974;2024-03-17T01:19:42;14.80;99.90
67379;DHT22;54262;44.642;-0.974;2024-03-17T01:22:07;14.80;99.90
67379;DHT22;54262;44.642;-0.974;2024-03-17T01:24:33;14.90;99.90
67379;DHT22;54262;44.642;-0.974;2024-03-17T01:26:59;14.90;99.90
67379;DHT22;54262;44.642;-0.974;2024-03-17T01:29:25;14.80;99.90
67379;DHT22;54262;44.642;-0.974;2024-03-17T01:31:51;14.80;99.90
67379;DHT22;54262;44.642;-0.974;2024-03-17T01:34:18;14.80;99.90
67379;DHT22;54262;44.642;-0.974;2024-03-17T01:36:47;14.90;99.90
67379;DHT22;54262;44.642;-0.974;2024-03-17T01:39:12;14.90;99.90
67379;DHT22;54262;44.642;-0.974;2024-03-17T01:41:38;14.90;99.90
67379;DHT22;54262;44.642;-0.974;2024-03-17T01:44:04;14.80;99.90
67379;DHT22;54262;44.642;-0.974;2024-03-17T01:46:30;14.90;99.90
67379;DHT22;54262;44.642;-0.974;2024-03-17T01:48:58;14.90;99.90
67379;DHT22;54262;44.642;-0.974;2024-03-17T01:51:24;14.90;99.90
67379;DHT22;54262;44.642;-0.974;2024-03-17T01:53:50;14.90;99.90
67379;DHT22;54262;44.642;-0.974;2024-03-17T01:56:16;15.00;99.90
67379;DHT22;54262;44.642;-0.974;2024-03-17T01:58:45;15.00;99.90
67379;DHT22;54262;44.642;-0.974;2024-03-17T02:01:11;14.90;99.90
67379;DHT22;54262;44.642;-0.974;2024-03-17T02:03:40;14.90;99.90
67379;DHT22;54262;44.642;-0.974;2024-03-17T02:06:08;14.90;99.90
67379;DHT22;54262;44.642;-0.974;2024-03-17T02:08:50;14.90;99.90
67379;DHT22;54262;44.642;-0.974;2024-03-17T02:11:34;15.00;99.90
67379;DHT22;54262;44.642;-0.974;2024-03-17T02:14:00;14.90;99.90
67379;DHT22;54262;44.642;-0.974;2024-03-17T02:16:29;15.00;99.90
67379;DHT22;54262;44.642;-0.974;2024-03-17T02:18:57;14.90;99.90
67379;DHT22;54262;44.642;-0.974;2024-03-17T02:21:26;14.90;99.90
67379;DHT22;54262;44.642;-0.974;2024-03-17T02:23:55;14.90;99.90
67379;DHT22;54262;44.642;-0.974;2024-03-17T02:26:22;14.90;99.90
67379;DHT22;54262;44.642;-0.974;2024-03-17T02:28:48;14.90;99.90
67379;DHT22;54262;44.642;-0.974;2024-03-17T02:31:16;14.90;99.90
67379;DHT22;54262;44.642;-0.974;2024-03-17T02:33:42;14.90;99.90
67379;DHT22;54262;44.642;-0.974;2024-03-17T02:36:09;14.90;99.90
67379;DHT22;54262;44.642;-0.974;2024-03-17T02:38:36;14.90;99.90
67379;DHT22;54262;44.642;-0.974;2024-03-17T02:41:21;14.90;99.90
67379;DHT22;54262;44.642;-0.974;2024-03-17T02:43:47;14.90;99.90
67379;DHT22;54262;44.642;-0.974;2024-03-17T02:46:14;14.80;99.90
67379;DHT22;54262;44.642;-0.974;2024-03-17T02:48:41;14.80;99.90
67379;DHT22;54262;44.642;-0.974;2024-03-17T02:51:15;14.80;99.90
67379;DHT22;54262;44.642;-0.974;2024-03-17T02:53:44;14.80;99.90
67379;DHT22;54262;44.642;-0.974;2024-03-17T02:56:10;14.80;99.90
67379;DHT22;54262;44.642;-0.974;2024-03-17T02:58:37;14.80;99.90
67379;DHT22;54262;44.642;-0.974;2024-03-17T03:01:04;14.80;99.90
67379;DHT22;54262;44.642;-0.974;2024-03-17T03:03:30;14.70;99.90
67379;DHT22;54262;44.642;-0.974;2024-03-17T03:05:56;14.70;99.90
67379;DHT22;54262;44.642;-0.974;2024-03-17T03:08:22;14.70;99.90
67379;DHT22;54262;44.642;-0.974;2024-03-17T03:10:51;14.70;99.90
67379;DHT22;54262;44.642;-0.974;2024-03-17T03:13:17;14.70;99.90
67379;DHT22;54262;44.642;-0.974;2024-03-17T03:15:43;14.70;99.90
67379;DHT22;54262;44.642;-0.974;2024-03-17T03:18:09;14.60;99.90
67379;DHT22;54262;44.642;-0.974;2024-03-17T03:20:34;14.60;99.90
67379;DHT22;54262;44.642;-0.974;2024-03-17T03:23:03;14.50;99.90
67379;DHT22;54262;44.642;-0.974;2024-03-17T03:25:29;14.50;99.90
67379;DHT22;54262;44.642;-0.974;2024-03-17T03:27:54;14.50;99.90
67379;DHT22;54262;44.642;-0.974;2024-03-17T03:30:23;14.40;99.90
67379;DHT22;54262;44.642;-0.974;2024-03-17T03:32:49;14.40;99.90
67379;DHT22;54262;44.642;-0.974;2024-03-17T03:35:14;14.40;99.90
67379;DHT22;54262;44.642;-0.974;2024-03-17T03:37:41;14.40;99.90
67379;DHT22;54262;44.642;-0.974;2024-03-17T03:40:10;14.40;99.90
67379;DHT22;54262;44.642;-0.974;2024-03-17T03:42:45;14.30;99.90
67379;DHT22;54262;44.642;-0.974;2024-03-17T03:45:11;14.40;99.90
67379;DHT22;54262;44.642;-0.974;2024-03-17T03:47:40;14.30;99.90
67379;DHT22;54262;44.642;-0.974;2024-03-17T03:50:09;14.30;99.90
67379;DHT22;54262;44.642;-0.974;2024-03-17T03:52:38;14.30;99.90
67379;DHT22;54262;44.642;-0.974;2024-03-17T03:55:06;14.40;99.90
67379;DHT22;54262;44.642;-0.974;2024-03-17T03:57:33;14.30;99.90
67379;DHT22;54262;44.642;-0.974;2024-03-17T04:00:03;14.40;99.90
67379;DHT22;54262;44.642;-0.974;2024-03-17T04:02:41;14.40;99.90
67379;DHT22;54262;44.642;-0.974;2024-03-17T04:05:07;14.40;99.90
67379;DHT22;54262;44.642;-0.974;2024-03-17T04:07:33;14.40;99.90
67379;DHT22;54262;44.642;-0.974;2024-03-17T04:10:00;14.30;99.90
67379;DHT22;54262;44.642;-0.974;2024-03-17T04:12:25;14.40;99.90
67379;DHT22;54262;44.642;-0.974;2024-03-17T04:14:51;14.30;99.90
67379;DHT22;54262;44.642;-0.974;2024-03-17T04:17:19;14.30;99.90
67379;DHT22;54262;44.642;-0.974;2024-03-17T04:19:47;14.30;99.90
67379;DHT22;54262;44.642;-0.974;2024-03-17T04:22:15;14.30;99.90
67379;DHT22;54262;44.642;-0.974;2024-03-17T04:24:44;14.30;99.90
67379;DHT22;54262;44.642;-0.974;2024-03-17T04:27:10;14.30;99.90
67379;DHT22;54262;44.642;-0.974;2024-03-17T04:29:36;14.30;99.90
67379;DHT22;54262;44.642;-0.974;2024-03-17T04:32:02;14.30;99.90
67379;DHT22;54262;44.642;-0.974;2024-03-17T04:34:28;14.30;99.90
67379;DHT22;54262;44.642;-0.974;2024-03-17T04:36:53;14.30;99.90
67379;DHT22;54262;44.642;-0.974;2024-03-17T04:39:19;14.30;99.90
67379;DHT22;54262;44.642;-0.974;2024-03-17T04:41:47;14.30;99.90
67379;DHT22;54262;44.642;-0.974;2024-03-17T04:44:13;14.20;99.90
67379;DHT22;54262;44.642;-0.974;2024-03-17T04:46:39;14.20;99.90
67379;DHT22;54262;44.642;-0.974;2024-03-17T04:49:05;14.20;99.90
67379;DHT22;54262;44.642;-0.974;2024-03-17T04:51:31;14.20;99.90
67379;DHT22;54262;44.642;-0.974;2024-03-17T04:53:59;14.20;99.90
67379;DHT22;54262;44.642;-0.974;2024-03-17T04:56:25;14.10;99.90
67379;DHT22;54262;44.642;-0.974;2024-03-17T04:58:50;14.10;99.90
67379;DHT22;54262;44.642;-0.974;2024-03-17T05:01:16;14.10;99.90
67379;DHT22;54262;44.642;-0.974;2024-03-17T05:03:42;14.10;99.90
67379;DHT22;54262;44.642;-0.974;2024-03-17T05:06:08;14.00;99.90
67379;DHT22;54262;44.642;-0.974;2024-03-17T05:08:34;14.00;99.90
67379;DHT22;54262;44.642;-0.974;2024-03-17T05:11:04;14.00;99.90
67379;DHT22;54262;44.642;-0.974;2024-03-17T05:19:05;13.90;99.90
67379;DHT22;54262;44.642;-0.974;2024-03-17T05:21:31;13.90;99.90
67379;DHT22;54262;44.642;-0.974;2024-03-17T05:23:57;13.90;99.90
67379;DHT22;54262;44.642;-0.974;2024-03-17T05:26:26;13.90;99.90
67379;DHT22;54262;44.642;-0.974;2024-03-17T05:28:51;13.80;99.90
67379;DHT22;54262;44.642;-0.974;2024-03-17T05:31:17;13.90;99.90
67379;DHT22;54262;44.642;-0.974;2024-03-17T05:33:44;13.80;99.90
67379;DHT22;54262;44.642;-0.974;2024-03-17T05:36:10;13.80;99.90
67379;DHT22;54262;44.642;-0.974;2024-03-17T05:38:36;13.80;99.90
67379;DHT22;54262;44.642;-0.974;2024-03-17T05:41:03;13.80;99.90
67379;DHT22;54262;44.642;-0.974;2024-03-17T05:43:33;13.80;99.90
67379;DHT22;54262;44.642;-0.974;2024-03-17T05:46:02;13.70;99.90
67379;DHT22;54262;44.642;-0.974;2024-03-17T05:48:31;13.70;99.90
67379;DHT22;54262;44.642;-0.974;2024-03-17T05:51:04;13.70;99.90
67379;DHT22;54262;44.642;-0.974;2024-03-17T05:53:30;13.70;99.90
67379;DHT22;54262;44.642;-0.974;2024-03-17T05:56:04;13.60;99.90
67379;DHT22;54262;44.642;-0.974;2024-03-17T05:58:30;13.60;99.90
67379;DHT22;54262;44.642;-0.974;2024-03-17T06:00:56;13.60;99.90
67379;DHT22;54262;44.642;-0.974;2024-03-17T06:03:22;13.60;99.90
67379;DHT22;54262;44.642;-0.974;2024-03-17T06:05:48;13.60;99.90
67379;DHT22;54262;44.642;-0.974;2024-03-17T06:08:14;13.60;99.90
67379;DHT22;54262;44.642;-0.974;2024-03-17T06:10:45;13.60;99.90
67379;DHT22;54262;44.642;-0.974;2024-03-17T06:13:11;13.60;99.90
67379;DHT22;54262;44.642;-0.974;2024-03-17T06:15:39;13.60;99.90
67379;DHT22;54262;44.642;-0.974;2024-03-17T06:18:05;13.60;99.90
67379;DHT22;54262;44.642;-0.974;2024-03-17T06:20:34;13.60;99.90
67379;DHT22;54262;44.642;-0.974;2024-03-17T06:23:00;13.60;99.90
67379;DHT22;54262;44.642;-0.974;2024-03-17T06:25:26;13.60;99.90
67379;DHT22;54262;44.642;-0.974;2024-03-17T06:27:54;13.60;99.90
67379;DHT22;54262;44.642;-0.974;2024-03-17T06:30:22;13.70;99.90
67379;DHT22;54262;44.642;-0.974;2024-03-17T06:32:48;13.60;99.90
67379;DHT22;54262;44.642;-0.974;2024-03-17T06:40:24;13.70;99.90
67379;DHT22;54262;44.642;-0.974;2024-03-17T06:42:50;13.70;99.90
67379;DHT22;54262;44.642;-0.974;2024-03-17T06:45:17;13.80;99.90
67379;DHT22;54262;44.642;-0.974;2024-03-17T06:47:46;13.70;99.90
67379;DHT22;54262;44.642;-0.974;2024-03-17T06:50:12;13.80;99.90
67379;DHT22;54262;44.642;-0.974;2024-03-17T06:52:37;13.80;99.90
67379;DHT22;54262;44.642;-0.974;2024-03-17T06:55:04;13.80;99.90
67379;DHT22;54262;44.642;-0.974;2024-03-17T06:57:33;13.80;99.90
67379;DHT22;54262;44.642;-0.974;2024-03-17T07:00:02;13.90;99.90
67379;DHT22;54262;44.642;-0.974;2024-03-17T07:02:31;13.90;99.90
67379;DHT22;54262;44.642;-0.974;2024-03-17T07:04:57;14.00;99.90
67379;DHT22;54262;44.642;-0.974;2024-03-17T07:07:26;14.00;99.90
67379;DHT22;54262;44.642;-0.974;2024-03-17T07:09:51;14.00;99.90
67379;DHT22;54262;44.642;-0.974;2024-03-17T07:12:17;14.00;99.90
67379;DHT22;54262;44.642;-0.974;2024-03-17T07:14:42;14.10;99.90
67379;DHT22;54262;44.642;-0.974;2024-03-17T07:17:08;14.10;99.90
67379;DHT22;54262;44.642;-0.974;2024-03-17T07:19:34;14.10;99.90
67379;DHT22;54262;44.642;-0.974;2024-03-17T07:22:01;14.20;99.90
67379;DHT22;54262;44.642;-0.974;2024-03-17T07:24:27;14.20;99.90
67379;DHT22;54262;44.642;-0.974;2024-03-17T07:26:53;14.30;99.90
67379;DHT22;54262;44.642;-0.974;2024-03-17T07:29:21;14.30;99.90
67379;DHT22;54262;44.642;-0.974;2024-03-17T07:31:46;14.40;99.90
67379;DHT22;54262;44.642;-0.974;2024-03-17T07:34:12;14.40;99.90
67379;DHT22;54262;44.642;-0.974;2024-03-17T07:36:38;14.50;99.90
67379;DHT22;54262;44.642;-0.974;2024-03-17T07:39:04;14.50;99.90
67379;DHT22;54262;44.642;-0.974;2024-03-17T07:41:32;14.60;99.90
67379;DHT22;54262;44.642;-0.974;2024-03-17T07:43:58;14.60;99.90
67379;DHT22;54262;44.642;-0.974;2024-03-17T07:46:24;14.70;99.90
67379;DHT22;54262;44.642;-0.974;2024-03-17T07:48:49;14.80;99.90
67379;DHT22;54262;44.642;-0.974;2024-03-17T07:51:16;14.90;99.90
67379;DHT22;54262;44.642;-0.974;2024-03-17T07:53:46;15.00;99.90
67379;DHT22;54262;44.642;-0.974;2024-03-17T07:56:16;15.20;99.90
67379;DHT22;54262;44.642;-0.974;2024-03-17T07:58:44;15.20;99.90
67379;DHT22;54262;44.642;-0.974;2024-03-17T08:12:13;15.40;99.90
67379;DHT22;54262;44.642;-0.974;2024-03-17T08:14:39;15.40;99.90
67379;DHT22;54262;44.642;-0.974;2024-03-17T08:17:04;15.50;99.90
67379;DHT22;54262;44.642;-0.974;2024-03-17T08:19:31;15.60;99.90
67379;DHT22;54262;44.642;-0.974;2024-03-17T08:21:57;15.70;99.90
67379;DHT22;54262;44.642;-0.974;2024-03-17T08:24:22;15.80;99.90
67379;DHT22;54262;44.642;-0.974;2024-03-17T08:26:48;15.90;99.90
67379;DHT22;54262;44.642;-0.974;2024-03-17T08:29:13;16.10;99.90
67379;DHT22;54262;44.642;-0.974;2024-03-17T08:31:42;16.20;99.90
67379;DHT22;54262;44.642;-0.974;2024-03-17T08:34:10;16.30;99.90
67379;DHT22;54262;44.642;-0.974;2024-03-17T08:36:35;16.40;99.90
67379;DHT22;54262;44.642;-0.974;2024-03-17T08:39:01;16.50;99.90
67379;DHT22;54262;44.642;-0.974;2024-03-17T08:41:27;16.50;99.90
67379;DHT22;54262;44.642;-0.974;2024-03-17T08:43:53;16.60;99.90
67379;DHT22;54262;44.642;-0.974;2024-03-17T08:46:18;16.70;99.90
67379;DHT22;54262;44.642;-0.974;2024-03-17T08:48:44;16.80;99.90
67379;DHT22;54262;44.642;-0.974;2024-03-17T08:51:10;16.90;99.90
67379;DHT22;54262;44.642;-0.974;2024-03-17T08:58:37;17.30;99.90
67379;DHT22;54262;44.642;-0.974;2024-03-17T09:06:16;17.60;99.90
67379;DHT22;54262;44.642;-0.974;2024-03-17T09:08:44;17.70;99.90
67379;DHT22;54262;44.642;-0.974;2024-03-17T09:11:13;17.70;99.90
67379;DHT22;54262;44.642;-0.974;2024-03-17T09:13:39;17.80;99.90
67379;DHT22;54262;44.642;-0.974;2024-03-17T09:21:15;17.90;99.90
67379;DHT22;54262;44.642;-0.974;2024-03-17T09:23:42;18.00;99.90
67379;DHT22;54262;44.642;-0.974;2024-03-17T09:26:09;17.90;99.90
67379;DHT22;54262;44.642;-0.974;2024-03-17T09:28:36;17.90;99.90
67379;DHT22;54262;44.642;-0.974;2024-03-17T09:31:02;17.80;99.90
67379;DHT22;54262;44.642;-0.974;2024-03-17T09:33:30;17.80;99.90
67379;DHT22;54262;44.642;-0.974;2024-03-17T09:36:00;17.90;99.90
67379;DHT22;54262;44.642;-0.974;2024-03-17T09:38:27;17.90;99.90
67379;DHT22;54262;44.642;-0.974;2024-03-17T09:40:53;17.90;99.90
67379;DHT22;54262;44.642;-0.974;2024-03-17T09:43:21;17.90;99.90
67379;DHT22;54262;44.642;-0.974;2024-03-17T09:45:48;18.10;99.90
67379;DHT22;54262;44.642;-0.974;2024-03-17T09:48:15;18.00;99.90
67379;DHT22;54262;44.642;-0.974;2024-03-17T09:50:49;18.00;99.90
67379;DHT22;54262;44.642;-0.974;2024-03-17T09:53:16;18.10;99.90
67379;DHT22;54262;44.642;-0.974;2024-03-17T09:55:43;18.10;99.90
67379;DHT22;54262;44.642;-0.974;2024-03-17T09:58:16;18.20;99.90
67379;DHT22;54262;44.642;-0.974;2024-03-17T10:00:45;18.20;99.90
67379;DHT22;54262;44.642;-0.974;2024-03-17T10:03:39;18.20;99.90
67379;DHT22;54262;44.642;-0.974;2024-03-17T10:06:09;18.20;99.90
67379;DHT22;54262;44.642;-0.974;2024-03-17T10:08:57;18.20;99.90
67379;DHT22;54262;44.642;-0.974;2024-03-17T10:11:25;18.30;99.90
67379;DHT22;54262;44.642;-0.974;2024-03-17T10:16:31;18.40;99.90
67379;DHT22;54262;44.642;-0.974;2024-03-17T10:19:14;18.50;99.90
67379;DHT22;54262;44.642;-0.974;2024-03-17T10:21:44;18.50;99.90
67379;DHT22;54262;44.642;-0.974;2024-03-17T10:24:24;18.60;99.90
67379;DHT22;54262;44.642;-0.974;2024-03-17T10:26:51;18.60;99.90
67379;DHT22;54262;44.642;-0.974;2024-03-17T10:29:31;18.60;99.90
67379;DHT22;54262;44.642;-0.974;2024-03-17T10:32:02;18.60;99.90
67379;DHT22;54262;44.642;-0.974;2024-03-17T10:34:31;18.60;99.90
67379;DHT22;54262;44.642;-0.974;2024-03-17T10:37:19;18.60;99.90
67379;DHT22;54262;44.642;-0.974;2024-03-17T10:39:46;18.70;99.90
67379;DHT22;54262;44.642;-0.974;2024-03-17T10:42:13;18.70;99.90
67379;DHT22;54262;44.642;-0.974;2024-03-17T10:44:41;18.80;99.90
67379;DHT22;54262;44.642;-0.974;2024-03-17T10:47:09;18.80;99.90
67379;DHT22;54262;44.642;-0.974;2024-03-17T10:49:38;18.80;99.90
67379;DHT22;54262;44.642;-0.974;2024-03-17T10:52:06;18.90;99.90
67379;DHT22;54262;44.642;-0.974;2024-03-17T10:54:33;18.90;99.90
67379;DHT22;54262;44.642;-0.974;2024-03-17T10:59:48;19.10;99.90
67379;DHT22;54262;44.642;-0.974;2024-03-17T11:02:25;19.10;99.90
67379;DHT22;54262;44.642;-0.974;2024-03-17T11:04:59;19.10;99.90
67379;DHT22;54262;44.642;-0.974;2024-03-17T11:07:25;19.20;99.90
67379;DHT22;54262;44.642;-0.974;2024-03-17T11:09:53;19.20;99.90
67379;DHT22;54262;44.642;-0.974;2024-03-17T11:20:37;19.60;99.90
67379;DHT22;54262;44.642;-0.974;2024-03-17T11:23:03;19.60;99.90
67379;DHT22;54262;44.642;-0.974;2024-03-17T11:28:09;19.70;99.90
67379;DHT22;54262;44.642;-0.974;2024-03-17T11:38:52;19.50;99.90
67379;DHT22;54262;44.642;-0.974;2024-03-17T11:41:39;19.50;99.90
67379;DHT22;54262;44.642;-0.974;2024-03-17T11:46:50;19.50;99.90
67379;DHT22;54262;44.642;-0.974;2024-03-17T11:49:28;19.50;99.90
67379;DHT22;54262;44.642;-0.974;2024-03-17T11:51:56;19.60;99.90
67379;DHT22;54262;44.642;-0.974;2024-03-17T11:54:33;19.60;99.90
67379;DHT22;54262;44.642;-0.974;2024-03-17T11:57:13;19.60;99.90
67379;DHT22;54262;44.642;-0.974;2024-03-17T11:59:39;19.60;99.90
67379;DHT22;54262;44.642;-0.974;2024-03-17T12:04:40;19.70;99.90
67379;DHT22;54262;44.642;-0.974;2024-03-17T12:07:13;19.70;99.90
67379;DHT22;54262;44.642;-0.974;2024-03-17T12:09:41;19.70;99.90
67379;DHT22;54262;44.642;-0.974;2024-03-17T12:12:14;19.80;99.90
67379;DHT22;54262;44.642;-0.974;2024-03-17T12:14:41;19.90;99.90
67379;DHT22;54262;44.642;-0.974;2024-03-17T12:17:09;19.90;99.90
67379;DHT22;54262;44.642;-0.974;2024-03-17T12:19:36;19.90;99.90
67379;DHT22;54262;44.642;-0.974;2024-03-17T12:22:04;19.90;99.90
67379;DHT22;54262;44.642;-0.974;2024-03-17T12:24:32;20.00;99.90
67379;DHT22;54262;44.642;-0.974;2024-03-17T12:26:59;20.00;99.90
67379;DHT22;54262;44.642;-0.974;2024-03-17T12:29:40;20.00;99.90
67379;DHT22;54262;44.642;-0.974;2024-03-17T12:34:38;20.00;99.90
67379;DHT22;54262;44.642;-0.974;2024-03-17T12:37:07;20.10;99.90
67379;DHT22;54262;44.642;-0.974;2024-03-17T12:39:34;20.10;99.90
67379;DHT22;54262;44.642;-0.974;2024-03-17T12:42:14;20.10;99.90
67379;DHT22;54262;44.642;-0.974;2024-03-17T12:44:47;20.10;99.90
67379;DHT22;54262;44.642;-0.974;2024-03-17T12:47:20;20.10;99.90
67379;DHT22;54262;44.642;-0.974;2024-03-17T12:49:52;20.10;99.90
67379;DHT22;54262;44.642;-0.974;2024-03-17T12:52:25;20.10;99.90
67379;DHT22;54262;44.642;-0.974;2024-03-17T12:57:45;20.20;99.90
67379;DHT22;54262;44.642;-0.974;2024-03-17T13:00:30;20.20;99.90
67379;DHT22;54262;44.642;-0.974;2024-03-17T13:03:02;20.20;99.90
67379;DHT22;54262;44.642;-0.974;2024-03-17T13:05:29;20.30;99.90
67379;DHT22;54262;44.642;-0.974;2024-03-17T13:07:58;20.30;99.90
67379;DHT22;54262;44.642;-0.974;2024-03-17T13:15:35;20.40;99.90
67379;DHT22;54262;44.642;-0.974;2024-03-17T13:18:02;20.50;99.90
67379;DHT22;54262;44.642;-0.974;2024-03-17T13:20:30;20.50;99.90
67379;DHT22;54262;44.642;-0.974;2024-03-17T13:22:56;20.50;99.90
67379;DHT22;54262;44.642;-0.974;2024-03-17T13:25:24;20.60;99.90
67379;DHT22;54262;44.642;-0.974;2024-03-17T13:27:52;20.60;99.90
67379;DHT22;54262;44.642;-0.974;2024-03-17T13:30:20;20.60;99.90
67379;DHT22;54262;44.642;-0.974;2024-03-17T13:32:49;20.60;99.90
67379;DHT22;54262;44.642;-0.974;2024-03-17T13:35:22;20.60;99.90
67379;DHT22;54262;44.642;-0.974;2024-03-17T13:37:51;20.60;99.90
67379;DHT22;54262;44.642;-0.974;2024-03-17T13:40:19;20.60;99.90
67379;DHT22;54262;44.642;-0.974;2024-03-17T13:42:46;20.60;99.90
67379;DHT22;54262;44.642;-0.974;2024-03-17T13:45:13;20.60;99.90
67379;DHT22;54262;44.642;-0.974;2024-03-17T13:47:40;20.70;99.90
67379;DHT22;54262;44.642;-0.974;2024-03-17T13:50:06;20.70;99.90
67379;DHT22;54262;44.642;-0.974;2024-03-17T13:52:39;20.70;99.90
67379;DHT22;54262;44.642;-0.974;2024-03-17T13:55:28;20.70;99.90
67379;DHT22;54262;44.642;-0.974;2024-03-17T13:57:55;20.70;99.90
67379;DHT22;54262;44.642;-0.974;2024-03-17T14:00:23;20.80;99.90
67379;DHT22;54262;44.642;-0.974;2024-03-17T14:02:50;20.80;99.90
67379;DHT22;54262;44.642;-0.974;2024-03-17T14:05:18;20.80;99.90
67379;DHT22;54262;44.642;-0.974;2024-03-17T14:07:44;20.80;99.90
67379;DHT22;54262;44.642;-0.974;2024-03-17T14:10:14;20.80;99.90
67379;DHT22;54262;44.642;-0.974;2024-03-17T14:12:40;20.80;99.90
67379;DHT22;54262;44.642;-0.974;2024-03-17T14:15:06;20.90;99.90
67379;DHT22;54262;44.642;-0.974;2024-03-17T14:17:32;20.90;99.90
67379;DHT22;54262;44.642;-0.974;2024-03-17T14:19:59;20.90;99.90
67379;DHT22;54262;44.642;-0.974;2024-03-17T14:22:24;20.90;99.90
67379;DHT22;54262;44.642;-0.974;2024-03-17T14:24:50;20.90;99.90
67379;DHT22;54262;44.642;-0.974;2024-03-17T14:27:16;20.90;99.90
67379;DHT22;54262;44.642;-0.974;2024-03-17T14:29:43;20.90;99.90
67379;DHT22;54262;44.642;-0.974;2024-03-17T14:32:09;20.90;99.90
67379;DHT22;54262;44.642;-0.974;2024-03-17T14:34:34;20.90;99.90
67379;DHT22;54262;44.642;-0.974;2024-03-17T14:37:02;20.90;99.90
67379;DHT22;54262;44.642;-0.974;2024-03-17T14:39:31;20.90;99.90
67379;DHT22;54262;44.642;-0.974;2024-03-17T14:41:57;21.00;99.90
67379;DHT22;54262;44.642;-0.974;2024-03-17T14:44:23;21.00;99.90
67379;DHT22;54262;44.642;-0.974;2024-03-17T14:46:49;21.00;99.90
67379;DHT22;54262;44.642;-0.974;2024-03-17T14:49:19;21.00;99.90
67379;DHT22;54262;44.642;-0.974;2024-03-17T14:51:45;21.00;99.90
67379;DHT22;54262;44.642;-0.974;2024-03-17T14:54:10;21.00;99.90
67379;DHT22;54262;44.642;-0.974;2024-03-17T14:56:37;21.00;99.90
67379;DHT22;54262;44.642;-0.974;2024-03-17T14:59:03;21.00;99.90
67379;DHT22;54262;44.642;-0.974;2024-03-17T15:01:28;21.00;99.90
67379;DHT22;54262;44.642;-0.974;2024-03-17T15:03:55;21.00;99.90
67379;DHT22;54262;44.642;-0.974;2024-03-17T15:06:21;21.00;99.90
67379;DHT22;54262;44.642;-0.974;2024-03-17T15:08:47;21.00;99.90
67379;DHT22;54262;44.642;-0.974;2024-03-17T15:11:15;21.00;99.90
67379;DHT22;54262;44.642;-0.974;2024-03-17T15:13:44;21.00;99.90
67379;DHT22;54262;44.642;-0.974;2024-03-17T15:16:10;21.00;99.90
67379;DHT22;54262;44.642;-0.974;2024-03-17T15:18:37;21.00;99.90
67379;DHT22;54262;44.642;-0.974;2024-03-17T15:21:03;21.00;99.90
67379;DHT22;54262;44.642;-0.974;2024-03-17T15:23:32;21.00;99.90
67379;DHT22;54262;44.642;-0.974;2024-03-17T15:26:05;21.00;99.90
67379;DHT22;54262;44.642;-0.974;2024-03-17T15:28:40;21.00;99.90
67379;DHT22;54262;44.642;-0.974;2024-03-17T15:31:07;21.00;99.90
67379;DHT22;54262;44.642;-0.974;2024-03-17T15:33:33;20.90;99.90
67379;DHT22;54262;44.642;-0.974;2024-03-17T15:36:12;21.00;99.90
67379;DHT22;54262;44.642;-0.974;2024-03-17T15:38:38;21.00;99.90
67379;DHT22;54262;44.642;-0.974;2024-03-17T15:41:10;20.90;99.90
67379;DHT22;54262;44.642;-0.974;2024-03-17T15:43:37;20.90;99.90
67379;DHT22;54262;44.642;-0.974;2024-03-17T15:46:15;20.90;99.90
67379;DHT22;54262;44.642;-0.974;2024-03-17T15:48:41;20.90;99.90
67379;DHT22;54262;44.642;-0.974;2024-03-17T15:51:07;20.90;99.90
67379;DHT22;54262;44.642;-0.974;2024-03-17T15:53:33;20.90;99.90
67379;DHT22;54262;44.642;-0.974;2024-03-17T15:56:02;20.90;99.90
67379;DHT22;54262;44.642;-0.974;2024-03-17T15:58:29;20.80;99.90
67379;DHT22;54262;44.642;-0.974;2024-03-17T16:00:56;20.80;99.90
67379;DHT22;54262;44.642;-0.974;2024-03-17T16:03:32;20.90;99.90
67379;DHT22;54262;44.642;-0.974;2024-03-17T16:08:40;20.80;99.90
67379;DHT22;54262;44.642;-0.974;2024-03-17T16:11:07;20.80;99.90
67379;DHT22;54262;44.642;-0.974;2024-03-17T16:13:38;20.70;99.90
67379;DHT22;54262;44.642;-0.974;2024-03-17T16:16:06;20.70;99.90
67379;DHT22;54262;44.642;-0.974;2024-03-17T16:18:32;20.70;99.90
67379;DHT22;54262;44.642;-0.974;2024-03-17T16:21:08;20.60;99.90
67379;DHT22;54262;44.642;-0.974;2024-03-17T16:23:38;20.50;99.90
67379;DHT22;54262;44.642;-0.974;2024-03-17T16:26:06;20.60;99.90
67379;DHT22;54262;44.642;-0.974;2024-03-17T16:28:32;20.50;99.90
67379;DHT22;54262;44.642;-0.974;2024-03-17T16:30:59;20.40;99.90
67379;DHT22;54262;44.642;-0.974;2024-03-17T16:33:25;20.30;99.90
67379;DHT22;54262;44.642;-0.974;2024-03-17T16:35:55;20.30;99.90
67379;DHT22;54262;44.642;-0.974;2024-03-17T16:38:22;20.10;99.90
67379;DHT22;54262;44.642;-0.974;2024-03-17T16:40:48;20.10;99.90
67379;DHT22;54262;44.642;-0.974;2024-03-17T16:43:26;20.00;99.90
67379;DHT22;54262;44.642;-0.974;2024-03-17T16:46:07;20.00;99.90
67379;DHT22;54262;44.642;-0.974;2024-03-17T16:48:37;19.90;99.90
67379;DHT22;54262;44.642;-0.974;2024-03-17T16:51:03;19.90;99.90